Time;durP1;ratioP1;P1;durP2;ratioP2;P2;SDS_P1;SDS_P2;PMS_P1;PMS_P2;Temp;Humidity;BMP_temperature;BMP_pressure;BME280_temperature;BME280_humidity;BME280_pressure;Samples;Min_cycle;Max_cycle;Signal;HPM_P1;HPM_P2
2021/07/20 04:24:15;;;;;;;24.03;19.63;;;;;;;21.75;91.65;94325.81;6169504;22;884548;-78
2021/07/20 05:03:09;;;;;;;24.35;19.85;;;;;;;22.68;88.07;94349.72;5082309;27;1337196;-78
2021/07/20 05:05:38;;;;;;;29.08;23.23;;;;;;;21.54;94.90;94350.47;5107921;28;20031;-78
2021/07/20 05:08:04;;;;;;;27.25;24.55;;;;;;;21.96;92.46;94363.69;5124836;28;20024;-77
2021/07/20 05:10:30;;;;;;;25.73;22.08;;;;;;;23.89;87.30;94355.88;5100431;28;20473;-76
2021/07/20 05:12:56;;;;;;;22.48;20.13;;;;;;;24.67;79.85;94356.97;5124282;28;20015;-78
2021/07/20 05:15:21;;;;;;;24.75;21.85;;;;;;;23.69;83.64;94355.13;5108956;28;20028;-77
2021/07/20 05:17:47;;;;;;;19.45;17.80;;;;;;;24.61;78.88;94357.28;5125500;27;20043;-78
2021/07/20 05:20:14;;;;;;;20.88;18.70;;;;;;;24.89;79.24;94347.88;5126833;27;20127;-76
2021/07/20 05:22:40;;;;;;;21.25;19.13;;;;;;;24.44;80.31;94347.00;5125471;27;20114;-78
2021/07/20 05:25:06;;;;;;;21.33;19.10;;;;;;;26.64;72.90;94335.94;5114181;27;20103;-75
2021/07/20 05:27:34;;;;;;;19.10;17.27;;;;;;;26.60;68.52;94342.88;5120244;28;20555;-77
2021/07/20 05:30:00;;;;;;;21.50;19.52;;;;;;;24.77;76.02;94352.69;5125170;27;20057;-78
2021/07/20 05:32:26;;;;;;;21.30;19.40;;;;;;;23.31;82.22;94345.88;5125142;28;20104;-76
2021/07/20 05:34:52;;;;;;;23.60;20.83;;;;;;;23.06;84.66;94357.19;5106768;28;20015;-76
2021/07/20 05:37:21;;;;;;;23.55;21.10;;;;;;;22.39;87.39;94359.91;5125461;28;20732;-76
2021/07/20 05:39:47;;;;;;;23.45;21.17;;;;;;;21.99;88.99;94358.66;5120432;28;20672;-76
2021/07/20 05:42:12;;;;;;;23.55;21.17;;;;;;;22.17;88.90;94360.09;5112942;28;20040;-77
2021/07/20 05:44:38;;;;;;;25.85;23.27;;;;;;;21.97;88.66;94358.13;5104348;28;20028;-76
2021/07/20 05:47:04;;;;;;;29.40;26.20;;;;;;;21.40;91.21;94370.38;5123369;27;20077;-76
2021/07/20 05:49:29;;;;;;;27.52;24.73;;;;;;;21.29;92.96;94374.75;5103695;28;20066;-77
2021/07/20 05:51:55;;;;;;;28.60;25.48;;;;;;;21.51;92.35;94377.31;5109280;28;20032;-76
2021/07/20 05:54:20;;;;;;;27.63;24.70;;;;;;;22.32;89.91;94373.34;5126224;27;20503;-76
2021/07/20 05:56:46;;;;;;;24.50;22.02;;;;;;;26.88;72.07;94363.28;5105205;28;20029;-78
2021/07/20 05:59:11;;;;;;;22.13;19.65;;;;;;;29.01;62.74;94355.88;5112212;28;20031;-79
2021/07/20 06:01:38;;;;;;;21.30;19.17;;;;;;;28.90;61.88;94364.41;5079101;28;20051;-76
2021/07/20 06:04:03;;;;;;;19.10;17.30;;;;;;;30.58;57.66;94362.72;5105092;28;20035;-77
2021/07/20 06:06:29;;;;;;;22.63;20.42;;;;;;;25.68;71.84;94377.56;5109414;28;20028;-76
2021/07/20 06:08:55;;;;;;;22.95;20.02;;;;;;;23.77;80.31;94383.69;5092790;28;20111;-79
2021/07/20 06:11:21;;;;;;;26.85;23.38;;;;;;;22.71;86.04;94375.63;5054234;28;20076;-77
2021/07/20 06:13:47;;;;;;;26.23;23.50;;;;;;;22.89;87.23;94377.81;5010617;28;20044;-79
2021/07/20 06:16:12;;;;;;;26.75;23.90;;;;;;;22.50;87.58;94375.53;5048394;28;20025;-75
2021/07/20 06:18:38;;;;;;;29.73;26.77;;;;;;;21.85;89.31;94373.34;5065288;28;20078;-78
2021/07/20 06:21:05;;;;;;;30.10;26.90;;;;;;;21.77;91.00;94386.22;5057581;28;20326;-76
2021/07/20 06:23:42;;;;;;;29.92;26.73;;;;;;;21.80;91.84;94385.69;5058914;28;20513;-78
2021/07/20 06:26:07;;;;;;;30.83;27.48;;;;;;;21.89;90.39;94384.19;5066666;28;20237;-78
2021/07/20 06:28:33;;;;;;;30.83;27.55;;;;;;;21.89;92.54;94389.47;5060966;28;20529;-79
2021/07/20 06:30:59;;;;;;;31.63;28.30;;;;;;;22.02;91.60;94389.81;5063425;28;20061;-76
2021/07/20 06:33:25;;;;;;;34.97;28.52;;;;;;;21.98;91.56;94394.00;5049019;28;20402;-79
2021/07/20 06:35:50;;;;;;;33.10;28.65;;;;;;;22.70;88.02;94387.25;5055224;28;20143;-78
2021/07/20 06:38:17;;;;;;;34.13;30.50;;;;;;;22.47;89.92;94386.63;5062400;28;20486;-77
2021/07/20 06:40:44;;;;;;;99.82;89.65;;;;;;;23.38;86.16;94378.91;5061607;28;20134;-76
2021/07/20 06:43:10;;;;;;;53.50;47.90;;;;;;;23.32;85.14;94379.97;5060191;28;20086;-78
2021/07/20 06:45:38;;;;;;;81.38;73.18;;;;;;;22.71;89.70;94386.19;5032360;28;20585;-77
2021/07/20 06:48:03;;;;;;;73.57;65.75;;;;;;;25.07;79.99;94382.50;5058993;28;20025;-79
2021/07/20 06:50:29;;;;;;;62.42;56.28;;;;;;;26.71;70.93;94371.69;5058582;28;20020;-80
2021/07/20 06:52:54;;;;;;;62.72;56.38;;;;;;;24.68;77.55;94389.56;5056940;28;20055;-77
2021/07/20 06:55:22;;;;;;;41.65;37.33;;;;;;;23.69;83.30;94392.97;5080130;28;20020;-76
2021/07/20 06:57:47;;;;;;;37.72;33.70;;;;;;;23.39;84.07;94383.16;5058889;28;20059;-76
2021/07/20 07:00:16;;;;;;;35.45;31.70;;;;;;;23.71;82.97;94390.03;5060828;28;20029;-80
2021/07/20 07:02:42;;;;;;;27.40;24.83;;;;;;;23.82;82.55;94386.34;5058058;28;20563;-78
2021/07/20 07:05:09;;;;;;;25.17;22.85;;;;;;;24.42;79.55;94388.06;5070680;28;20450;-78
2021/07/20 07:07:35;;;;;;;22.10;20.02;;;;;;;26.99;70.44;94382.56;5061047;28;20066;-78
2021/07/20 07:10:01;;;;;;;21.65;19.70;;;;;;;27.02;68.10;94379.31;5059470;28;20070;-79
2021/07/20 07:12:27;;;;;;;23.05;20.88;;;;;;;26.24;72.52;94386.88;5064515;28;20391;-76
2021/07/20 07:14:53;;;;;;;21.95;19.90;;;;;;;26.41;70.81;94387.22;5065899;28;20046;-77
2021/07/20 07:17:18;;;;;;;23.88;21.70;;;;;;;26.79;70.27;94388.09;5069046;28;20503;-76
2021/07/20 07:19:46;;;;;;;23.75;21.30;;;;;;;27.16;66.23;94382.84;5060940;28;20521;-77
2021/07/20 07:22:11;;;;;;;21.30;19.08;;;;;;;30.36;57.70;94384.94;5056377;28;20097;-81
2021/07/20 07:24:37;;;;;;;19.25;17.05;;;;;;;32.79;50.78;94391.59;5057316;28;20051;-77
2021/07/20 07:27:02;;;;;;;18.52;16.80;;;;;;;30.46;57.94;94394.59;5061949;28;20035;-78
2021/07/20 07:29:28;;;;;;;19.10;17.60;;;;;;;28.85;60.19;94394.63;5059739;28;20492;-78
2021/07/20 07:31:53;;;;;;;18.90;17.38;;;;;;;28.41;63.55;94397.88;5058207;28;20036;-77
2021/07/20 07:34:19;;;;;;;20.38;18.83;;;;;;;29.06;61.63;94398.44;5060201;28;20480;-80
2021/07/20 07:36:46;;;;;;;19.98;18.48;;;;;;;29.14;60.90;94405.75;5068992;28;20528;-79
2021/07/20 07:39:12;;;;;;;22.17;19.95;;;;;;;29.02;62.31;94405.47;5055500;28;20143;-82
2021/07/20 08:33:55;;;;;;;18.67;17.23;;;;;;;27.43;65.98;94388.31;5096242;27;20415;-77
2021/07/20 08:36:20;;;;;;;17.88;16.27;;;;;;;28.06;62.83;94393.97;5085627;28;20452;-77
2021/07/20 08:38:46;;;;;;;16.15;14.35;;;;;;;28.73;60.56;94381.00;5083634;28;20024;-78
2021/07/20 08:41:20;;;;;;;16.23;14.80;;;;;;;27.89;63.11;94384.94;5078807;28;20127;-78
2021/07/20 08:44:43;;;;;;;15.63;14.43;;;;;;;28.00;63.84;94389.78;5084048;28;20753;-78
2021/07/20 08:47:17;;;;;;;25.85;23.48;;;;;;;27.43;61.46;94384.84;5072945;28;20032;-75
2021/07/20 08:50:16;;;;;;;15.50;14.30;;;;;;;26.54;66.01;94384.69;5063030;28;20028;-76
2021/07/20 08:52:47;;;;;;;15.55;14.15;;;;;;;26.87;65.43;94385.66;5053085;28;20032;-81
2021/07/20 08:55:26;;;;;;;16.77;15.10;;;;;;;27.20;65.68;94381.19;5068830;28;20030;-77
2021/07/20 08:58:17;;;;;;;;;;;;;;;27.35;64.03;94382.84;5089875;28;20034;-77
2021/07/20 09:00:45;;;;;;;15.75;14.25;;;;;;;27.99;62.87;94374.09;5081819;28;19920;-78
2021/07/20 09:03:18;;;;;;;13.02;11.82;;;;;;;28.85;60.87;94373.28;5088057;28;20512;-78
2021/07/20 09:05:53;;;;;;;15.48;13.95;;;;;;;28.76;61.10;94372.41;5092203;28;20073;-77
2021/07/20 09:08:24;;;;;;;14.15;12.65;;;;;;;29.06;59.61;94382.41;5065880;28;20055;-81
2021/07/20 09:11:09;;;;;;;13.75;12.45;;;;;;;28.42;61.28;94375.44;5082447;28;20039;-81
2021/07/20 09:13:35;;;;;;;14.90;12.98;;;;;;;28.32;63.65;94369.53;5081629;28;20414;-87
2021/07/20 09:16:11;;;;;;;13.30;11.65;;;;;;;28.67;60.67;94374.19;5048997;28;20086;-78
2021/07/20 09:18:41;;;;;;;12.73;11.57;;;;;;;28.18;59.77;94366.84;5101935;28;20479;-80
2021/07/20 09:21:06;;;;;;;11.35;10.35;;;;;;;27.91;61.21;94370.22;5102442;28;20500;-78
2021/07/20 09:23:43;;;;;;;12.93;11.10;;;;;;;28.48;60.50;94382.25;5067447;28;20104;-78
2021/07/20 09:26:23;;;;;;;11.75;10.85;;;;;;;27.77;61.50;94373.94;5068974;28;20474;-77
2021/07/20 09:29:03;;;;;;;12.90;11.57;;;;;;;28.40;60.19;94376.84;5086520;28;20096;-75
2021/07/20 09:31:49;;;;;;;11.32;10.43;;;;;;;28.85;59.48;94372.50;5066839;28;20019;-78
2021/07/20 09:34:15;;;;;;;11.88;11.00;;;;;;;27.79;61.11;94377.09;5070273;28;20425;-78
2021/07/20 09:36:50;;;;;;;10.93;10.13;;;;;;;28.67;62.83;94380.31;5068257;28;20028;-78
2021/07/20 09:39:33;;;;;;;10.77;9.77;;;;;;;28.02;60.28;94386.84;5065437;28;20567;-76
2021/07/20 09:42:05;;;;;;;11.55;10.43;;;;;;;28.06;59.46;94379.88;5088663;28;20079;-79
2021/07/20 09:45:02;;;;;;;10.20;9.25;;;;;;;28.50;58.20;94372.09;5065483;28;20691;-78
2021/07/20 09:47:43;;;;;;;10.13;8.93;;;;;;;28.58;59.27;94367.94;5051156;28;20069;-74
2021/07/20 09:50:16;;;;;;;9.25;8.40;;;;;;;27.56;60.30;94368.94;5071518;28;20036;-79
2021/07/20 09:53:04;;;;;;;9.43;8.63;;;;;;;27.72;61.16;94367.63;5033036;28;20028;-78
2021/07/20 09:55:57;;;;;;;8.90;7.97;;;;;;;28.10;60.95;94367.53;5067121;28;20542;-80
2021/07/20 09:58:40;;;;;;;8.27;7.57;;;;;;;28.30;58.96;94367.16;5066377;28;20044;-77
2021/07/20 10:01:14;;;;;;;9.70;8.73;;;;;;;28.22;61.55;94355.28;5033197;28;20017;-79
2021/07/20 10:04:03;;;;;;;9.25;8.55;;;;;;;27.88;59.25;94360.16;5068181;28;20436;-78
2021/07/20 10:06:36;;;;;;;8.10;7.60;;;;;;;28.34;60.04;94357.50;5065656;28;20477;-86
2021/07/20 10:09:43;;;;;;;8.73;7.90;;;;;;;28.38;59.58;94355.03;5049143;28;20111;-78
2021/07/20 10:12:40;;;;;;;7.95;7.28;;;;;;;28.62;60.14;94358.25;5049415;28;20070;-80
2021/07/20 10:15:08;;;;;;;8.50;7.90;;;;;;;28.55;61.38;94352.53;5064586;28;20025;-77
2021/07/20 10:17:50;;;;;;;9.07;8.30;;;;;;;28.66;60.42;94344.06;5065850;28;20987;-78
2021/07/20 10:20:22;;;;;;;8.57;7.75;;;;;;;28.73;59.36;94352.47;5067139;28;20030;-84
2021/07/20 10:23:00;;;;;;;8.50;7.70;;;;;;;29.20;57.70;94340.50;5049166;28;20032;-76
2021/07/20 10:25:29;;;;;;;7.53;6.72;;;;;;;28.87;57.06;94344.41;5066415;28;20512;-78
2021/07/20 10:28:10;;;;;;;7.30;6.80;;;;;;;28.83;58.02;94343.47;5064160;28;20032;-77
2021/07/20 10:30:36;;;;;;;8.32;7.50;;;;;;;28.73;59.70;94338.34;5065568;28;20032;-77
2021/07/20 10:33:17;;;;;;;8.23;7.53;;;;;;;28.45;59.98;94342.09;5048189;28;20493;-78
2021/07/20 10:35:46;;;;;;;8.68;7.63;;;;;;;28.48;59.58;94336.94;5063539;28;20109;-78
2021/07/20 10:38:17;;;;;;;7.85;7.25;;;;;;;28.42;56.38;94332.78;5064856;28;20021;-79
2021/07/20 10:40:43;;;;;;;7.75;7.22;;;;;;;28.17;57.97;94335.97;5063319;28;20563;-81
2021/07/20 10:43:18;;;;;;;9.02;7.53;;;;;;;28.22;54.55;94338.53;5051299;28;20020;-81
2021/07/20 10:45:46;;;;;;;8.38;7.68;;;;;;;28.09;57.06;94328.66;5063451;28;20021;-76
2021/07/20 10:48:24;;;;;;;8.20;7.35;;;;;;;27.69;57.23;94335.47;5030249;28;20021;-76
2021/07/20 10:50:54;;;;;;;10.80;7.55;;;;;;;27.88;57.15;94330.88;5047582;28;20020;-77
2021/07/20 10:54:17;;;;;;;8.85;8.23;;;;;;;28.53;59.50;94333.38;5046206;28;20036;-76
2021/07/20 10:56:50;;;;;;;8.60;7.75;;;;;;;28.32;57.33;94332.22;5061748;28;20045;-76
2021/07/20 10:59:18;;;;;;;9.07;8.38;;;;;;;28.23;58.33;94329.44;5038881;28;20147;-77
2021/07/20 11:01:43;;;;;;;8.30;7.78;;;;;;;28.44;56.13;94325.31;5071644;28;20036;-77
2021/07/20 11:04:19;;;;;;;9.25;8.50;;;;;;;28.52;58.13;94334.47;5077454;28;20032;-76
2021/07/20 11:06:46;;;;;;;8.75;7.95;;;;;;;28.38;55.87;94325.72;5071762;28;20180;-76
2021/07/20 11:09:21;;;;;;;9.00;7.53;;;;;;;28.50;54.83;94324.13;5052846;28;20020;-83
2021/07/20 11:11:53;;;;;;;9.82;7.32;;;;;;;28.66;55.23;94325.41;5056248;28;20043;-76
2021/07/20 11:14:20;;;;;;;9.02;8.20;;;;;;;28.59;56.88;94314.31;5045996;28;20033;-77
2021/07/20 11:16:46;;;;;;;8.60;8.00;;;;;;;28.64;56.76;94319.53;5067299;28;20118;-76
2021/07/20 11:19:11;;;;;;;8.88;8.18;;;;;;;28.49;54.75;94316.41;5064945;28;20016;-77
2021/07/20 11:21:37;;;;;;;8.50;7.90;;;;;;;28.09;57.09;94320.69;5063597;28;20117;-85
2021/07/20 11:24:03;;;;;;;8.25;7.60;;;;;;;28.50;54.54;94310.78;5039186;28;20024;-85
2021/07/20 11:26:29;;;;;;;8.50;7.80;;;;;;;28.61;57.16;94316.69;5060108;28;20386;-79
2021/07/20 11:28:54;;;;;;;8.68;7.97;;;;;;;28.55;55.27;94315.22;5055769;28;20034;-78
2021/07/20 11:31:37;;;;;;;8.82;8.05;;;;;;;28.51;56.95;94315.00;5071525;28;20036;-77
2021/07/20 11:34:10;;;;;;;8.75;8.00;;;;;;;28.47;55.29;94314.06;5071728;28;20105;-80
2021/07/20 11:36:40;;;;;;;8.38;7.78;;;;;;;28.43;57.81;94307.72;5047385;28;20031;-76
2021/07/20 11:39:06;;;;;;;8.55;7.85;;;;;;;28.26;55.35;94310.19;5028087;28;20040;-75
2021/07/20 11:41:50;;;;;;;7.82;7.20;;;;;;;28.70;55.31;94320.28;4988873;28;20063;-76
2021/07/20 11:44:43;;;;;;;7.47;6.88;;;;;;;28.52;55.28;94308.59;5012319;28;20021;-76
2021/07/20 11:47:34;;;;;;;8.52;7.88;;;;;;;28.71;56.66;94309.28;5006994;28;20025;-81
2021/07/20 11:50:05;;;;;;;9.07;7.55;;;;;;;28.48;54.90;94309.53;5006438;28;20041;-77
2021/07/20 11:52:39;;;;;;;9.25;8.60;;;;;;;28.77;56.29;94308.09;5014112;28;20112;-77
2021/07/20 11:55:28;;;;;;;8.65;7.82;;;;;;;28.48;53.71;94294.28;5008151;28;20026;-77
2021/07/20 11:58:15;;;;;;;8.10;7.50;;;;;;;28.49;54.72;94298.53;5005953;28;20056;-77
2021/07/20 12:01:01;;;;;;;6.80;6.30;;;;;;;28.46;51.55;94304.47;5013576;28;20048;-76
2021/07/20 12:03:40;;;;;;;6.63;6.03;;;;;;;28.31;56.07;94309.31;5008789;28;20034;-76
2021/07/20 12:06:16;;;;;;;7.10;6.60;;;;;;;28.58;52.73;94310.06;5012844;28;20039;-81
2021/07/20 12:08:47;;;;;;;8.82;7.70;;;;;;;28.64;53.12;94297.44;5012066;28;20036;-76
2021/07/20 12:11:22;;;;;;;7.35;6.85;;;;;;;28.67;52.38;94297.63;5010680;28;20510;-79
2021/07/20 12:13:48;;;;;;;8.02;7.30;;;;;;;28.55;52.48;94293.88;5012568;28;20046;-75
2021/07/20 12:16:14;;;;;;;8.30;7.68;;;;;;;28.43;55.11;94283.75;4993227;28;20499;-77
2021/07/20 12:18:50;;;;;;;8.65;7.93;;;;;;;28.42;53.06;94292.81;5009597;28;20042;-75
2021/07/20 12:21:19;;;;;;;8.98;8.27;;;;;;;28.58;55.23;94287.94;4994095;28;20091;-78
2021/07/20 12:23:45;;;;;;;9.05;8.35;;;;;;;28.60;55.69;94283.13;4999719;28;20029;-77
2021/07/20 12:26:11;;;;;;;9.38;8.77;;;;;;;28.35;54.01;94287.13;5015049;28;20518;-77
2021/07/20 12:28:43;;;;;;;9.88;9.18;;;;;;;28.59;56.74;94279.66;5007180;28;20038;-76
2021/07/20 12:31:09;;;;;;;10.18;9.40;;;;;;;28.20;56.42;94277.53;5016898;28;20029;-75
2021/07/20 12:33:35;;;;;;;8.77;8.18;;;;;;;28.06;54.83;94274.09;5014718;28;20042;-76
2021/07/20 12:36:01;;;;;;;10.82;9.95;;;;;;;28.19;55.07;94281.28;4988059;28;20679;-76
2021/07/20 12:38:33;;;;;;;9.90;9.05;;;;;;;28.18;55.36;94278.94;5009116;28;20026;-76
2021/07/20 12:41:11;;;;;;;9.48;8.77;;;;;;;28.56;54.39;94282.94;5017532;28;20028;-77
2021/07/20 12:43:44;;;;;;;11.23;10.17;;;;;;;28.24;55.92;94278.53;5021201;28;20099;-81
2021/07/20 12:46:13;;;;;;;10.30;9.40;;;;;;;28.25;54.74;94280.13;4990691;28;20034;-79
2021/07/20 12:48:46;;;;;;;10.73;9.82;;;;;;;28.05;55.43;94274.38;5012086;28;20404;-75
2021/07/20 12:51:12;;;;;;;10.43;9.63;;;;;;;28.52;55.25;94273.94;4993378;28;20120;-84
2021/07/20 12:53:39;;;;;;;10.50;9.40;;;;;;;28.61;54.96;94277.47;4982260;28;20038;-80
2021/07/20 12:56:05;;;;;;;10.10;9.30;;;;;;;28.47;53.29;94274.06;4992658;28;20029;-75
2021/07/20 12:58:30;;;;;;;8.88;8.15;;;;;;;28.17;53.04;94277.34;4979698;28;20517;-77
2021/07/20 13:00:55;;;;;;;8.82;8.23;;;;;;;28.04;53.08;94273.56;5023134;28;20021;-79
2021/07/20 13:03:24;;;;;;;9.65;8.88;;;;;;;28.06;52.79;94271.41;4990096;28;20060;-80
2021/07/20 13:05:49;;;;;;;10.48;8.98;;;;;;;28.20;54.29;94274.09;5008427;28;20473;-79
2021/07/20 13:08:18;;;;;;;10.20;9.00;;;;;;;28.12;54.66;94280.13;4994788;28;20022;-77
2021/07/20 13:10:43;;;;;;;10.93;9.95;;;;;;;28.20;54.03;94276.75;5006154;28;20037;-76
2021/07/20 13:13:09;;;;;;;10.45;9.15;;;;;;;28.05;53.52;94277.84;4996539;28;20514;-81
2021/07/20 13:15:35;;;;;;;10.85;9.98;;;;;;;27.96;54.08;94276.16;4990323;28;20491;-76
2021/07/20 13:18:01;;;;;;;11.43;10.38;;;;;;;27.95;55.37;94269.22;5017895;28;20038;-78
2021/07/20 13:20:28;;;;;;;11.00;10.20;;;;;;;27.91;55.69;94276.22;5000945;28;20034;-77
2021/07/20 13:22:54;;;;;;;11.18;9.98;;;;;;;27.97;55.03;94275.84;5007739;28;20030;-80
2021/07/20 13:25:20;;;;;;;9.52;8.82;;;;;;;28.02;53.83;94283.75;4997922;28;20407;-78
2021/07/20 13:41:00;;;;;;;10.75;8.85;;;;;;;27.99;54.27;94287.00;5078593;27;20397;-78
2021/07/20 13:43:26;;;;;;;10.07;9.18;;;;;;;27.84;54.54;94278.50;5082831;28;20043;-81
2021/07/20 13:45:52;;;;;;;11.73;10.02;;;;;;;27.77;55.34;94274.34;5065895;28;20558;-79
2021/07/20 13:48:18;;;;;;;11.40;10.38;;;;;;;28.08;55.97;94277.25;5047057;28;20094;-80
2021/07/20 13:50:45;;;;;;;12.82;11.15;;;;;;;28.00;57.72;94275.25;5049639;28;20028;-79
2021/07/20 13:53:11;;;;;;;12.02;10.90;;;;;;;27.96;57.24;94278.81;5045735;28;20040;-76
2021/07/20 13:55:43;;;;;;;11.82;10.90;;;;;;;27.94;56.12;94273.75;5059734;28;20314;-78
2021/07/20 13:58:12;;;;;;;10.52;9.70;;;;;;;27.80;54.47;94280.97;5077065;28;20040;-82
2021/07/20 14:00:37;;;;;;;9.88;9.18;;;;;;;27.69;54.18;94261.72;5060587;28;20028;-75
2021/07/20 14:03:03;;;;;;;11.40;10.50;;;;;;;27.89;55.40;94281.06;5077635;28;20028;-79
2021/07/20 14:05:28;;;;;;;13.13;12.05;;;;;;;28.00;55.95;94282.47;5065744;28;20077;-75
2021/07/20 14:07:54;;;;;;;11.73;10.73;;;;;;;28.01;55.47;94279.50;5080504;28;20405;-81
2021/07/20 14:10:19;;;;;;;13.68;12.55;;;;;;;27.74;54.15;94271.50;5066763;28;20170;-79
2021/07/20 14:12:45;;;;;;;13.07;12.05;;;;;;;27.71;55.50;94288.81;5042495;28;20040;-81
2021/07/20 14:15:11;;;;;;;14.30;13.15;;;;;;;27.57;56.24;94281.91;5083930;28;20020;-83
2021/07/20 14:17:38;;;;;;;13.35;12.27;;;;;;;27.64;57.11;94285.00;5063569;28;20028;-81
2021/07/20 14:20:08;;;;;;;12.93;11.93;;;;;;;27.58;56.84;94294.91;5049632;28;20101;-78
2021/07/20 14:22:34;;;;;;;12.55;11.57;;;;;;;27.37;56.08;94290.19;5082831;28;20024;-81
2021/07/20 14:24:59;;;;;;;12.70;11.52;;;;;;;27.53;56.01;94286.22;5076465;28;20462;-77
2021/07/20 14:27:26;;;;;;;11.80;10.70;;;;;;;27.42;53.96;94288.25;5084417;28;20039;-78
2021/07/20 14:29:53;;;;;;;12.68;11.57;;;;;;;27.45;54.58;94294.91;5075707;28;20029;-80
2021/07/20 14:32:19;;;;;;;12.55;11.55;;;;;;;27.65;56.16;94294.53;5060082;28;20048;-80
2021/07/20 14:34:52;;;;;;;12.05;11.02;;;;;;;27.64;56.29;94296.44;5075655;28;20343;-80
2021/07/20 14:37:30;;;;;;;12.70;11.70;;;;;;;27.70;57.41;94292.59;5080438;28;20444;-75
2021/07/20 14:39:55;;;;;;;12.73;11.68;;;;;;;27.58;57.25;94297.56;5077530;28;20044;-75
2021/07/20 14:42:24;;;;;;;11.77;10.68;;;;;;;27.58;54.88;94299.47;5062127;28;20029;-77
2021/07/20 14:44:49;;;;;;;10.48;9.68;;;;;;;27.39;55.71;94298.69;5062959;28;20066;-81
2021/07/20 14:47:30;;;;;;;9.80;9.02;;;;;;;27.40;54.95;94305.59;5066687;28;20032;-78
2021/07/20 14:50:01;;;;;;;10.00;9.05;;;;;;;27.34;56.13;94304.88;5061688;28;20033;-83
2021/07/20 14:52:48;;;;;;;8.70;7.88;;;;;;;27.40;56.53;94314.38;5068917;28;20085;-80
2021/07/20 14:55:29;;;;;;;8.68;7.88;;;;;;;27.37;56.18;94311.50;5065840;28;20127;-80
2021/07/20 14:58:10;;;;;;;9.20;8.40;;;;;;;27.27;55.94;94312.44;5061569;28;20091;-77
2021/07/20 15:00:57;;;;;;;8.55;7.93;;;;;;;27.25;56.94;94309.28;5057146;28;20076;-77
2021/07/20 15:03:28;;;;;;;7.75;7.22;;;;;;;27.13;57.70;94300.97;5054103;28;20120;-79
2021/07/20 15:05:54;;;;;;;8.40;7.38;;;;;;;27.06;57.08;94305.88;5063075;28;20033;-84
2021/07/20 15:08:22;;;;;;;9.57;8.77;;;;;;;27.10;57.97;94306.88;5048297;28;20516;-85
2021/07/20 15:10:49;;;;;;;8.10;7.50;;;;;;;27.13;57.29;94309.72;5057946;28;20064;-86
2021/07/20 15:13:15;;;;;;;8.27;7.40;;;;;;;27.10;57.76;94312.97;5045605;28;20037;-81
2021/07/20 15:15:42;;;;;;;8.23;7.45;;;;;;;27.13;58.23;94307.06;5044328;28;20033;-84
2021/07/20 15:18:08;;;;;;;8.18;7.45;;;;;;;27.10;58.17;94314.84;5055851;28;20047;-77
2021/07/20 15:20:36;;;;;;;7.47;6.88;;;;;;;27.01;58.45;94313.91;5064965;28;20063;-80
2021/07/20 15:23:09;;;;;;;7.55;6.85;;;;;;;27.03;58.86;94306.44;5058398;28;20116;-78
2021/07/20 15:25:34;;;;;;;7.40;6.70;;;;;;;26.84;58.04;94309.13;5049336;28;20024;-81
2021/07/20 15:28:02;;;;;;;7.13;6.60;;;;;;;26.83;58.12;94314.72;5046250;28;20032;-79
2021/07/20 15:30:29;;;;;;;7.13;6.32;;;;;;;26.81;57.84;94311.56;5062410;28;20101;-80
